Time;durP1;ratioP1;P1;durP2;ratioP2;P2;SDS_P1;SDS_P2;PMS_P1;PMS_P2;Temp;Humidity;BMP_temperature;BMP_pressure;BME280_temperature;BME280_humidity;BME280_pressure;Samples;Min_cycle;Max_cycle;Signal;HPM_P1;HPM_P2
2024/01/28 00:01:27;;;;;;;21.80;11.77;;;1.30;1.00;;;;;;7381666;19;20006;-70
2024/01/28 00:03:57;;;;;;;18.63;11.07;;;1.20;1.00;;;;;;7379995;19;20021;-69
2024/01/28 00:06:30;;;;;;;21.80;11.23;;;1.20;1.00;;;;;;7379339;19;20040;-69
2024/01/28 00:09:00;;;;;;;17.75;11.45;;;1.20;1.00;;;;;;7381744;19;20015;-72
2024/01/28 00:11:30;;;;;;;16.90;10.30;;;1.20;1.00;;;;;;7380559;19;20018;-69
2024/01/28 00:14:01;;;;;;;16.65;10.27;;;1.20;1.00;;;;;;7381133;19;20021;-71
2024/01/28 00:16:30;;;;;;;16.58;10.25;;;1.10;1.00;;;;;;7381218;19;20006;-71
2024/01/28 00:19:01;;;;;;;14.70;9.63;;;1.00;1.00;;;;;;7381653;19;20348;-71
2024/01/28 00:21:34;;;;;;;19.40;10.60;;;0.90;1.00;;;;;;7380809;19;20006;-71
2024/01/28 00:24:05;;;;;;;19.80;11.38;;;1.00;1.00;;;;;;7381230;19;20031;-70
2024/01/28 00:26:39;;;;;;;15.38;10.45;;;0.90;1.00;;;;;;7379975;19;20006;-70
2024/01/28 00:29:10;;;;;;;21.63;11.75;;;0.90;1.00;;;;;;7380944;19;20007;-70
2024/01/28 00:31:40;;;;;;;19.58;10.95;;;0.90;1.00;;;;;;7380081;19;20011;-70
2024/01/28 00:34:10;;;;;;;20.27;12.07;;;0.80;1.00;;;;;;7381753;19;20010;-70
2024/01/28 00:36:42;;;;;;;20.10;12.18;;;0.90;1.00;;;;;;7380277;19;20133;-69
2024/01/28 00:39:13;;;;;;;22.92;11.82;;;0.80;1.00;;;;;;7380480;19;20513;-70
2024/01/28 00:41:44;;;;;;;16.85;10.73;;;0.80;1.00;;;;;;7380481;19;20021;-70
2024/01/28 00:44:14;;;;;;;19.33;11.50;;;0.70;1.00;;;;;;7381081;19;20014;-70
2024/01/28 00:46:44;;;;;;;18.85;10.98;;;0.80;1.00;;;;;;7380169;19;20362;-70
2024/01/28 00:49:14;;;;;;;18.85;11.18;;;0.80;1.00;;;;;;7381717;19;20019;-69
2024/01/28 00:51:47;;;;;;;18.17;11.00;;;0.90;1.00;;;;;;7379684;19;20654;-70
2024/01/28 00:54:17;;;;;;;19.02;11.35;;;1.00;1.00;;;;;;7379678;19;20006;-70
2024/01/28 00:56:47;;;;;;;18.75;10.25;;;1.00;1.00;;;;;;7380284;19;20013;-70
2024/01/28 00:59:19;;;;;;;17.23;10.18;;;0.90;1.00;;;;;;7380704;19;20504;-70
2024/01/28 01:01:49;;;;;;;15.52;10.55;;;0.90;1.00;;;;;;7380181;19;20011;-69
2024/01/28 01:04:19;;;;;;;15.60;10.02;;;0.90;1.00;;;;;;7379018;19;20022;-70
2024/01/28 01:06:52;;;;;;;19.98;10.85;;;0.80;1.00;;;;;;7381172;19;20006;-70
2024/01/28 01:09:22;;;;;;;18.27;10.65;;;0.70;1.00;;;;;;7379983;19;20006;-69
2024/01/28 01:11:52;;;;;;;15.85;9.90;;;0.60;1.00;;;;;;7379806;19;20456;-69
2024/01/28 01:14:22;;;;;;;19.10;10.75;;;0.70;1.00;;;;;;7379743;19;20010;-69
2024/01/28 01:16:52;;;;;;;15.82;10.48;;;0.80;1.00;;;;;;7381080;19;20370;-69
2024/01/28 01:19:22;;;;;;;16.95;10.00;;;0.90;1.00;;;;;;7379667;19;20014;-69
2024/01/28 01:21:57;;;;;;;17.42;10.60;;;0.80;1.00;;;;;;7378676;19;20015;-70
2024/01/28 01:24:27;;;;;;;15.25;10.32;;;0.70;1.00;;;;;;7381133;19;20010;-69
2024/01/28 01:26:57;;;;;;;19.15;10.75;;;0.70;1.00;;;;;;7381965;19;20013;-69
2024/01/28 01:29:27;;;;;;;19.38;9.85;;;0.70;1.00;;;;;;7377185;19;20034;-70
2024/01/28 01:31:57;;;;;;;15.13;10.73;;;0.60;1.00;;;;;;7380567;19;20017;-71
2024/01/28 01:34:27;;;;;;;19.98;10.68;;;0.60;1.00;;;;;;7382228;19;20017;-70
2024/01/28 01:37:00;;;;;;;19.42;10.63;;;0.50;1.00;;;;;;7375856;19;20032;-69
2024/01/28 01:39:30;;;;;;;21.05;10.43;;;0.60;1.00;;;;;;7379942;19;20006;-71
2024/01/28 01:42:00;;;;;;;19.88;10.98;;;0.60;1.00;;;;;;7376664;19;20017;-69
2024/01/28 01:44:31;;;;;;;16.42;10.73;;;0.60;1.00;;;;;;7378888;19;20022;-68
2024/01/28 01:47:01;;;;;;;16.15;10.30;;;0.50;1.00;;;;;;7380431;19;20014;-70
2024/01/28 01:49:32;;;;;;;18.65;10.70;;;0.50;1.00;;;;;;7378387;19;20449;-70
2024/01/28 01:52:06;;;;;;;15.75;11.43;;;0.60;1.00;;;;;;7372636;19;20010;-70
2024/01/28 01:54:36;;;;;;;17.65;10.63;;;0.60;1.00;;;;;;7379255;19;20030;-70
2024/01/28 01:57:07;;;;;;;19.95;10.43;;;0.60;1.00;;;;;;7377999;19;20467;-70
2024/01/28 01:59:38;;;;;;;22.05;11.13;;;0.70;1.00;;;;;;7378157;19;20007;-70
2024/01/28 02:02:10;;;;;;;16.35;11.27;;;0.80;1.00;;;;;;7376550;19;20003;-70
2024/01/28 02:04:41;;;;;;;20.63;11.07;;;0.70;1.00;;;;;;7377488;19;20044;-70
2024/01/28 02:07:13;;;;;;;19.95;11.35;;;0.80;1.00;;;;;;7378910;19;20345;-70
2024/01/28 02:09:43;;;;;;;19.33;11.68;;;0.70;1.00;;;;;;7377970;19;20014;-70
2024/01/28 02:12:14;;;;;;;17.00;11.25;;;0.70;1.00;;;;;;7377587;19;20015;-69
2024/01/28 02:14:43;;;;;;;23.95;11.93;;;0.70;1.00;;;;;;7376257;19;20345;-70
2024/01/28 02:17:14;;;;;;;22.55;11.90;;;0.80;1.00;;;;;;7377631;19;20007;-69
2024/01/28 02:19:44;;;;;;;19.00;11.32;;;0.80;1.00;;;;;;7376619;19;20006;-68
2024/01/28 02:22:17;;;;;;;20.58;10.40;;;0.70;1.00;;;;;;7377136;19;20011;-68
2024/01/28 02:24:49;;;;;;;16.73;10.20;;;0.70;1.00;;;;;;7376434;19;20010;-68
2024/01/28 02:27:19;;;;;;;18.48;11.25;;;0.80;1.00;;;;;;7377429;19;20014;-69
2024/01/28 02:29:49;;;;;;;18.02;10.98;;;0.70;1.00;;;;;;7376845;19;20017;-68
2024/01/28 02:32:20;;;;;;;17.48;11.70;;;0.70;1.00;;;;;;7376112;19;20011;-69
2024/01/28 02:34:50;;;;;;;21.02;11.77;;;0.70;1.00;;;;;;7377609;19;20050;-69
2024/01/28 02:37:20;;;;;;;19.63;11.38;;;0.80;1.00;;;;;;7377431;19;20013;-69
2024/01/28 02:39:53;;;;;;;18.80;10.98;;;0.70;1.00;;;;;;7377792;19;20054;-69
2024/01/28 02:42:23;;;;;;;17.77;10.23;;;0.70;1.00;;;;;;7376406;19;20034;-70
2024/01/28 02:44:53;;;;;;;17.33;10.63;;;0.70;1.00;;;;;;7377314;19;20531;-71
2024/01/28 02:47:24;;;;;;;22.23;10.60;;;0.60;1.00;;;;;;7378126;19;20006;-69
2024/01/28 02:49:54;;;;;;;14.80;10.30;;;0.70;1.00;;;;;;7377613;19;20010;-69
2024/01/28 02:52:24;;;;;;;19.27;11.30;;;0.60;1.00;;;;;;7376329;19;20039;-70
2024/01/28 02:54:57;;;;;;;21.60;11.05;;;0.60;1.00;;;;;;7376502;19;20017;-70
2024/01/28 02:57:27;;;;;;;18.85;10.20;;;0.60;1.00;;;;;;7374608;19;20014;-68
2024/01/28 02:59:58;;;;;;;18.50;10.25;;;0.50;1.00;;;;;;7378134;19;20003;-69
2024/01/28 03:02:28;;;;;;;17.33;10.77;;;0.50;1.00;;;;;;7375435;19;20467;-70
2024/01/28 03:04:58;;;;;;;20.25;11.40;;;0.60;1.00;;;;;;7375482;19;20023;-69
2024/01/28 03:07:28;;;;;;;18.15;11.02;;;0.50;1.00;;;;;;7376207;19;20006;-71
2024/01/28 03:10:01;;;;;;;16.35;10.88;;;0.50;1.00;;;;;;7376450;19;20011;-70
2024/01/28 03:12:31;;;;;;;17.33;11.48;;;0.60;1.00;;;;;;7371754;19;20071;-70
2024/01/28 03:15:01;;;;;;;16.98;9.93;;;0.50;1.00;;;;;;7381481;19;20010;-71
2024/01/28 03:17:31;;;;;;;18.15;11.23;;;0.60;1.00;;;;;;7384685;19;20011;-70
2024/01/28 03:20:01;;;;;;;15.75;10.57;;;0.40;1.00;;;;;;7382008;19;20014;-70
2024/01/28 03:22:32;;;;;;;21.15;10.93;;;0.30;1.00;;;;;;7382634;19;20010;-70
2024/01/28 03:25:05;;;;;;;17.00;10.93;;;0.30;1.00;;;;;;7385035;19;20168;-69
2024/01/28 03:27:35;;;;;;;17.13;11.02;;;0.30;1.00;;;;;;7381224;19;20086;-71
2024/01/28 03:30:07;;;;;;;19.00;10.77;;;0.20;1.00;;;;;;7383779;19;20026;-71
2024/01/28 03:32:37;;;;;;;20.08;12.25;;;0.10;1.00;;;;;;7382202;19;20013;-71
2024/01/28 03:35:10;;;;;;;18.85;12.57;;;0.10;1.00;;;;;;7383043;19;20098;-70
2024/01/28 03:37:40;;;;;;;20.27;11.27;;;0.10;1.00;;;;;;7381161;19;20003;-71
2024/01/28 03:40:14;;;;;;;21.23;10.65;;;0.00;1.00;;;;;;7382971;19;20093;-70
2024/01/28 03:42:44;;;;;;;21.13;11.90;;;0.00;1.00;;;;;;7380890;19;20006;-69
2024/01/28 03:45:18;;;;;;;21.15;12.75;;;0.00;2.20;;;;;;7381820;19;20010;-70
2024/01/28 03:47:48;;;;;;;19.25;12.43;;;0.00;2.90;;;;;;7380867;19;20054;-69
2024/01/28 03:50:19;;;;;;;18.42;10.88;;;0.10;5.80;;;;;;7383746;19;20022;-70
2024/01/28 03:52:49;;;;;;;18.02;10.70;;;0.10;3.20;;;;;;7381732;19;20018;-70
2024/01/28 03:55:22;;;;;;;18.65;11.82;;;0.10;2.90;;;;;;7382793;19;20010;-70
2024/01/28 03:57:52;;;;;;;22.52;11.73;;;0.10;1.00;;;;;;7381134;19;20448;-70
2024/01/28 04:00:28;;;;;;;20.73;11.93;;;0.00;1.00;;;;;;7384463;19;20035;-69
2024/01/28 04:03:00;;;;;;;24.73;11.80;;;0.00;1.00;;;;;;7386305;19;20015;-70
2024/01/28 04:05:32;;;;;;;20.27;11.27;;;-0.10;1.00;;;;;;7384090;19;20050;-69
2024/01/28 04:08:03;;;;;;;16.05;9.63;;;-0.20;1.00;;;;;;7382377;19;20014;-68
2024/01/28 04:10:36;;;;;;;19.75;11.27;;;-0.20;4.20;;;;;;7382685;19;20064;-69
2024/01/28 04:13:07;;;;;;;19.40;12.20;;;-0.20;6.40;;;;;;7379286;19;20028;-70
2024/01/28 04:15:37;;;;;;;17.45;11.75;;;-0.20;9.30;;;;;;7381541;19;20017;-70
2024/01/28 04:18:07;;;;;;;16.35;11.60;;;-0.30;11.10;;;;;;7379901;19;20369;-70
2024/01/28 04:20:37;;;;;;;19.45;10.80;;;-0.30;15.70;;;;;;7383776;19;20097;-71
2024/01/28 04:23:08;;;;;;;19.50;11.52;;;-0.20;18.00;;;;;;7380126;19;20014;-71
2024/01/28 04:25:40;;;;;;;18.48;10.48;;;-0.20;18.50;;;;;;7379831;19;20018;-72
2024/01/28 04:28:10;;;;;;;16.70;10.88;;;-0.30;18.00;;;;;;7381385;19;20034;-69
2024/01/28 04:30:40;;;;;;;18.25;10.52;;;-0.30;19.00;;;;;;7381203;19;20018;-70
2024/01/28 04:33:12;;;;;;;18.90;12.98;;;-0.20;20.20;;;;;;7381268;19;20024;-70
2024/01/28 04:35:42;;;;;;;18.75;11.77;;;-0.20;21.40;;;;;;7380989;19;20471;-69
2024/01/28 04:38:12;;;;;;;19.55;12.25;;;-0.30;20.50;;;;;;7379531;19;20007;-71
2024/01/28 04:40:45;;;;;;;21.90;11.38;;;-0.30;21.10;;;;;;7381290;19;20015;-69
2024/01/28 04:43:15;;;;;;;20.27;11.27;;;-0.30;24.80;;;;;;7379775;19;20029;-69
2024/01/28 04:45:45;;;;;;;18.52;11.93;;;-0.20;25.60;;;;;;7381784;19;20104;-70
2024/01/28 04:48:15;;;;;;;19.63;12.90;;;-0.30;25.30;;;;;;7381690;19;20491;-69
2024/01/28 04:50:45;;;;;;;18.25;10.88;;;-0.30;27.10;;;;;;7381507;19;20010;-69
2024/01/28 04:53:15;;;;;;;21.38;11.60;;;-0.30;27.30;;;;;;7382412;19;20010;-70
2024/01/28 04:55:48;;;;;;;22.65;11.25;;;-0.30;27.50;;;;;;7379843;19;20806;-71
2024/01/28 04:58:18;;;;;;;17.83;10.77;;;-0.30;26.30;;;;;;7381075;19;20081;-70
2024/01/28 05:00:48;;;;;;;19.58;11.70;;;-0.30;28.90;;;;;;7379364;19;20021;-68
2024/01/28 05:03:19;;;;;;;21.75;13.02;;;-0.40;26.00;;;;;;7381232;19;20014;-69
2024/01/28 05:05:49;;;;;;;17.05;10.48;;;-0.50;29.20;;;;;;7379123;19;20117;-68
2024/01/28 05:08:19;;;;;;;18.48;11.60;;;-0.50;29.70;;;;;;7379102;19;20014;-67
2024/01/28 05:10:52;;;;;;;16.70;10.35;;;-0.50;33.60;;;;;;7378745;19;20003;-68
2024/01/28 05:13:23;;;;;;;16.65;11.75;;;-0.50;33.30;;;;;;7380564;19;20015;-68
2024/01/28 05:15:53;;;;;;;16.50;11.25;;;-0.60;37.00;;;;;;7378189;19;20007;-69
2024/01/28 05:18:23;;;;;;;21.83;11.32;;;-0.60;36.30;;;;;;7378276;19;20372;-69
2024/01/28 05:20:53;;;;;;;23.77;12.57;;;-0.60;38.30;;;;;;7378961;19;20015;-68
2024/01/28 05:23:23;;;;;;;20.77;11.98;;;-0.50;45.10;;;;;;7379429;19;20015;-69
2024/01/28 05:25:57;;;;;;;20.58;11.98;;;-0.40;48.00;;;;;;7379241;19;20011;-68
2024/01/28 05:28:27;;;;;;;23.00;12.97;;;-0.40;48.90;;;;;;7381035;19;20007;-69
2024/01/28 05:30:57;;;;;;;24.27;13.05;;;-0.30;54.50;;;;;;7379260;19;20334;-69
2024/01/28 05:33:28;;;;;;;26.00;14.13;;;-0.20;60.20;;;;;;7381217;19;20041;-69
2024/01/28 05:35:59;;;;;;;23.58;14.77;;;-0.10;60.30;;;;;;7376222;19;20034;-69
2024/01/28 05:38:30;;;;;;;22.75;13.32;;;-0.20;56.50;;;;;;7377734;19;20011;-69
2024/01/28 05:41:03;;;;;;;22.58;14.05;;;-0.20;59.00;;;;;;7378645;19;20030;-69
2024/01/28 05:43:33;;;;;;;23.25;13.48;;;-0.20;57.70;;;;;;7379710;19;20007;-69
2024/01/28 05:46:03;;;;;;;21.50;13.65;;;-0.20;55.50;;;;;;7377597;19;20011;-68
2024/01/28 05:48:33;;;;;;;20.83;12.95;;;-0.20;55.70;;;;;;7379964;19;20010;-70
2024/01/28 05:51:04;;;;;;;22.45;13.27;;;-0.30;54.40;;;;;;7377700;19;20071;-69
2024/01/28 05:53:34;;;;;;;23.83;13.52;;;-0.30;54.70;;;;;;7378545;19;20006;-69
2024/01/28 05:56:08;;;;;;;20.63;12.95;;;-0.30;52.80;;;;;;7376558;19;20096;-69
2024/01/28 05:58:38;;;;;;;23.58;13.45;;;-0.40;51.30;;;;;;7375007;19;20010;-70
2024/01/28 06:01:09;;;;;;;21.90;13.18;;;-0.40;57.50;;;;;;7378424;19;20081;-70
2024/01/28 06:03:39;;;;;;;23.02;13.45;;;-0.20;66.10;;;;;;7379952;19;20010;-69
2024/01/28 06:06:09;;;;;;;22.23;13.75;;;-0.10;69.70;;;;;;7376526;19;20045;-70
2024/01/28 06:08:40;;;;;;;21.92;13.30;;;-0.20;62.90;;;;;;7380320;19;20003;-70
2024/01/28 06:11:12;;;;;;;19.42;13.13;;;-0.20;66.50;;;;;;7377298;19;20011;-68
2024/01/28 06:13:42;;;;;;;24.80;15.75;;;-0.20;63.20;;;;;;7380740;19;20021;-69
2024/01/28 06:16:12;;;;;;;23.10;15.15;;;-0.20;62.50;;;;;;7375524;19;20014;-70
2024/01/28 06:18:43;;;;;;;23.58;13.88;;;-0.20;62.90;;;;;;7378460;19;20043;-68
2024/01/28 06:21:14;;;;;;;21.25;12.65;;;-0.20;63.10;;;;;;7371852;19;20006;-69
2024/01/28 06:23:45;;;;;;;23.50;13.98;;;-0.20;65.40;;;;;;7378698;19;20079;-69
2024/01/28 06:26:18;;;;;;;22.85;14.52;;;-0.20;63.60;;;;;;7376572;19;20036;-69
2024/01/28 06:28:48;;;;;;;22.80;14.88;;;-0.20;66.30;;;;;;7377735;19;20050;-69
2024/01/28 06:31:19;;;;;;;21.15;13.23;;;-0.20;64.80;;;;;;7380490;19;20090;-69
2024/01/28 06:33:49;;;;;;;23.33;14.32;;;-0.30;65.10;;;;;;7381064;19;20010;-69
2024/01/28 06:36:23;;;;;;;21.77;12.77;;;-0.30;65.00;;;;;;7376559;19;20006;-69
2024/01/28 06:38:54;;;;;;;20.80;13.05;;;-0.40;65.00;;;;;;7377398;19;20015;-70
2024/01/28 06:41:27;;;;;;;25.88;13.57;;;-0.30;72.70;;;;;;7376908;19;20074;-69
2024/01/28 06:43:57;;;;;;;18.08;12.15;;;-0.20;72.80;;;;;;7378751;19;20003;-69
2024/01/28 06:46:27;;;;;;;21.25;12.60;;;-0.20;74.30;;;;;;7375882;19;20033;-70
2024/01/28 06:48:57;;;;;;;18.90;12.43;;;-0.20;78.10;;;;;;7376202;19;20019;-69
2024/01/28 06:51:28;;;;;;;19.75;12.75;;;-0.10;79.70;;;;;;7377610;19;20025;-69
2024/01/28 06:53:58;;;;;;;21.95;13.88;;;-0.10;76.00;;;;;;7377606;19;20017;-69
2024/01/28 06:56:30;;;;;;;20.40;12.73;;;-0.10;76.20;;;;;;7377684;19;20440;-70
2024/01/28 06:59:00;;;;;;;20.52;12.50;;;-0.10;74.10;;;;;;7376821;19;20021;-69
2024/01/28 07:01:30;;;;;;;25.15;13.38;;;-0.20;67.80;;;;;;7375012;19;20393;-70
2024/01/28 07:04:01;;;;;;;19.98;13.38;;;-0.20;67.20;;;;;;7373810;19;20013;-70
2024/01/28 07:06:31;;;;;;;23.15;13.10;;;-0.30;66.20;;;;;;7375255;19;20026;-69
2024/01/28 07:09:01;;;;;;;21.05;13.50;;;-0.30;66.50;;;;;;7377275;19;20010;-69
2024/01/28 07:11:34;;;;;;;23.23;13.88;;;-0.30;67.60;;;;;;7373946;19;20006;-69
2024/01/28 07:14:04;;;;;;;21.83;13.35;;;-0.40;70.90;;;;;;7376949;19;20011;-68
2024/01/28 07:16:35;;;;;;;21.25;14.38;;;-0.30;75.40;;;;;;7371703;19;20031;-68
2024/01/28 07:19:13;;;;;;;23.90;13.68;;;-0.30;70.70;;;;;;7370200;19;20002;-68
2024/01/28 07:21:47;;;;;;;20.83;13.65;;;-0.30;66.80;;;;;;7351444;19;20018;-70
2024/01/28 07:24:23;;;;;;;20.55;12.20;;;-0.30;63.80;;;;;;7367045;19;20017;-70
2024/01/28 07:26:56;;;;;;;27.65;13.50;;;-0.30;59.70;;;;;;7374595;19;20529;-69
2024/01/28 07:29:26;;;;;;;23.83;13.38;;;-0.30;56.60;;;;;;7374505;19;20010;-69
2024/01/28 07:31:56;;;;;;;23.70;15.00;;;-0.30;55.50;;;;;;7374543;19;20637;-69
2024/01/28 07:34:26;;;;;;;24.08;14.38;;;-0.30;54.50;;;;;;7374024;19;20021;-70
2024/01/28 07:36:57;;;;;;;23.02;13.38;;;-0.30;52.00;;;;;;7374791;19;20002;-70
2024/01/28 07:39:28;;;;;;;23.73;15.68;;;-0.30;48.80;;;;;;7374969;19;20628;-70
2024/01/28 07:42:01;;;;;;;23.92;15.77;;;-0.30;46.80;;;;;;7373281;19;20006;-69
2024/01/28 07:44:28;;;;;;;24.75;16.23;;;-0.30;47.10;;;;;;7376464;19;20022;-70
2024/01/28 07:46:59;;;;;;;25.45;14.15;;;-0.20;47.10;;;;;;7374055;19;20022;-69
2024/01/28 07:49:29;;;;;;;19.20;13.10;;;-0.20;47.00;;;;;;7374533;19;20006;-70
2024/01/28 07:51:59;;;;;;;20.50;13.75;;;-0.10;48.50;;;;;;7372913;19;20105;-70
2024/01/28 07:54:29;;;;;;;21.25;12.98;;;-0.10;44.30;;;;;;7375823;19;20439;-70
2024/01/28 07:57:02;;;;;;;21.15;12.82;;;0.00;40.70;;;;;;7374472;19;20013;-69
2024/01/28 07:59:32;;;;;;;22.20;12.20;;;0.10;33.10;;;;;;7374849;19;20015;-70
2024/01/28 08:02:02;;;;;;;19.98;12.80;;;0.20;25.30;;;;;;7381011;19;20006;-70
2024/01/28 08:04:32;;;;;;;24.88;14.48;;;0.30;20.60;;;;;;7381017;19;20007;-69
2024/01/28 08:07:03;;;;;;;23.05;13.35;;;0.30;14.20;;;;;;7381482;19;20030;-69
2024/01/28 08:09:33;;;;;;;23.02;14.68;;;0.30;9.40;;;;;;7380994;19;20031;-70
2024/01/28 08:12:07;;;;;;;31.63;16.80;;;0.30;5.10;;;;;;7379604;19;20010;-70
2024/01/28 08:14:37;;;;;;;33.83;17.30;;;0.40;2.30;;;;;;7380693;19;20014;-69
2024/01/28 08:17:08;;;;;;;24.50;16.88;;;0.50;1.00;;;;;;7380332;19;20062;-69
2024/01/28 08:19:38;;;;;;;31.02;18.42;;;0.60;1.00;;;;;;7380310;19;20017;-69
2024/01/28 08:22:09;;;;;;;26.98;17.33;;;0.60;1.00;;;;;;7380792;19;20023;-70
2024/01/28 08:24:40;;;;;;;28.48;17.27;;;0.70;1.00;;;;;;7382068;19;20007;-70
2024/01/28 08:27:13;;;;;;;29.50;16.27;;;0.70;1.00;;;;;;7380222;19;20007;-68
2024/01/28 08:29:43;;;;;;;34.15;16.75;;;0.80;1.00;;;;;;7380720;19;20010;-68
2024/01/28 08:32:13;;;;;;;27.95;16.77;;;0.80;1.00;;;;;;7380879;19;20026;-69
2024/01/28 08:34:45;;;;;;;31.27;17.90;;;0.90;1.00;;;;;;7380357;19;20120;-69
2024/01/28 08:37:15;;;;;;;26.83;16.70;;;1.00;1.00;;;;;;7382742;19;20089;-70
2024/01/28 08:39:45;;;;;;;24.45;16.25;;;1.00;1.00;;;;;;7381036;19;20475;-69
2024/01/28 08:42:19;;;;;;;27.13;16.92;;;1.10;1.00;;;;;;7379081;19;20031;-70
2024/01/28 08:44:49;;;;;;;24.50;16.57;;;1.20;1.00;;;;;;7376753;19;20014;-68
2024/01/28 08:47:19;;;;;;;24.83;14.85;;;1.30;1.00;;;;;;7378359;19;20003;-69
2024/01/28 08:49:50;;;;;;;22.45;14.07;;;1.40;1.00;;;;;;7380893;19;20014;-69
2024/01/28 08:52:22;;;;;;;18.27;12.10;;;1.50;1.00;;;;;;7380723;19;20523;-69
2024/01/28 08:54:52;;;;;;;19.45;12.70;;;1.60;1.00;;;;;;7374170;19;20514;-68
2024/01/28 08:57:25;;;;;;;18.50;11.98;;;1.70;1.00;;;;;;7382599;19;20007;-69
2024/01/28 08:59:55;;;;;;;20.00;12.75;;;1.70;1.00;;;;;;7374759;19;20014;-70
2024/01/28 09:02:25;;;;;;;20.33;12.65;;;1.80;1.00;;;;;;7383116;19;20010;-69
2024/01/28 09:04:55;;;;;;;20.58;13.90;;;1.90;1.00;;;;;;7379990;19;20014;-70
2024/01/28 09:07:25;;;;;;;20.42;13.60;;;2.00;1.00;;;;;;7379130;19;20474;-70
2024/01/28 09:09:55;;;;;;;22.67;13.98;;;2.10;1.00;;;;;;7379587;19;20011;-69
2024/01/28 09:12:28;;;;;;;19.05;12.68;;;2.20;1.00;;;;;;7377771;19;20010;-70
2024/01/28 09:14:58;;;;;;;19.40;12.48;;;2.30;1.00;;;;;;7378278;19;20592;-70
2024/01/28 09:17:28;;;;;;;21.55;13.38;;;2.30;1.00;;;;;;7378260;19;20010;-70
2024/01/28 09:19:58;;;;;;;20.10;12.63;;;2.40;1.00;;;;;;7377204;19;20352;-70
2024/01/28 09:22:29;;;;;;;18.10;12.43;;;2.50;1.00;;;;;;7377860;19;20035;-69
2024/01/28 09:24:59;;;;;;;19.15;12.93;;;2.50;1.00;;;;;;7378931;19;20010;-69
2024/01/28 09:27:31;;;;;;;20.98;13.50;;;2.60;1.00;;;;;;7377411;19;20071;-69
2024/01/28 09:30:02;;;;;;;17.05;12.45;;;2.70;1.00;;;;;;7379332;19;20366;-70
2024/01/28 09:32:32;;;;;;;17.70;12.20;;;2.80;1.00;;;;;;7378332;19;20031;-70
2024/01/28 09:35:02;;;;;;;23.63;11.63;;;2.90;1.00;;;;;;7376915;19;20039;-69
2024/01/28 09:37:33;;;;;;;19.98;11.85;;;3.10;1.00;;;;;;7378767;19;20018;-70
2024/01/28 09:40:03;;;;;;;17.45;11.38;;;3.10;1.00;;;;;;7377204;19;20435;-70
2024/01/28 09:42:40;;;;;;;18.33;11.93;;;3.20;1.00;;;;;;7376888;19;20011;-70
2024/01/28 09:45:11;;;;;;;18.08;12.52;;;3.30;1.00;;;;;;7376614;19;20067;-69
2024/01/28 09:47:43;;;;;;;15.18;10.23;;;3.50;1.00;;;;;;7378010;19;20562;-69
2024/01/28 09:50:16;;;;;;;16.05;10.85;;;3.60;1.00;;;;;;7378720;19;20010;-69
2024/01/28 09:52:46;;;;;;;18.90;10.90;;;3.70;1.00;;;;;;7376718;19;20018;-69
2024/01/28 09:55:16;;;;;;;17.20;10.65;;;3.80;1.00;;;;;;7378268;19;20006;-69
2024/01/28 09:57:49;;;;;;;16.77;11.30;;;3.80;1.00;;;;;;7377755;19;20014;-69
2024/01/28 10:00:22;;;;;;;16.92;11.30;;;3.90;1.00;;;;;;7377167;19;20018;-68
2024/01/28 10:02:52;;;;;;;16.05;10.95;;;4.10;1.00;;;;;;7376169;19;20090;-68
2024/01/28 10:05:22;;;;;;;16.13;10.82;;;4.20;1.00;;;;;;7378102;19;20007;-70
2024/01/28 10:08:00;;;;;;;15.25;10.82;;;4.30;1.00;;;;;;7377743;19;20010;-69
2024/01/28 10:10:32;;;;;;;15.68;10.77;;;4.40;1.00;;;;;;7376504;19;20387;-69
2024/01/28 10:13:05;;;;;;;16.50;11.07;;;4.50;1.00;;;;;;7376809;19;24711;-69
2024/01/28 10:15:35;;;;;;;16.98;10.35;;;4.50;1.00;;;;;;7376152;19;20038;-69
2024/01/28 10:18:06;;;;;;;13.90;10.48;;;4.60;1.00;;;;;;7377051;19;20010;-71
2024/01/28 10:20:36;;;;;;;15.50;10.07;;;4.70;1.00;;;;;;7376786;19;20026;-70
2024/01/28 10:23:07;;;;;;;15.80;9.68;;;4.80;1.00;;;;;;7376453;19;20023;-70
2024/01/28 10:25:37;;;;;;;11.38;8.60;;;4.80;1.00;;;;;;7377039;19;20025;-70
2024/01/28 10:28:11;;;;;;;12.73;8.88;;;4.90;1.00;;;;;;7375034;19;20018;-69
2024/01/28 10:30:42;;;;;;;14.55;9.60;;;5.10;1.00;;;;;;7376270;19;20019;-68
2024/01/28 10:33:12;;;;;;;11.93;8.73;;;5.20;1.00;;;;;;7375560;19;20016;-69
2024/01/28 10:35:47;;;;;;;11.52;8.77;;;5.20;1.00;;;;;;7375748;19;20560;-69
2024/01/28 10:38:21;;;;;;;11.40;8.63;;;5.30;1.00;;;;;;7377192;19;20034;-69
2024/01/28 10:40:52;;;;;;;;;;;5.40;1.00;;;;;;7374016;19;20022;-69
2024/01/28 10:43:29;;;;;;;13.00;8.48;;;5.50;1.00;;;;;;7378104;19;20451;-69
2024/01/28 10:46:02;;;;;;;11.68;8.52;;;5.60;1.00;;;;;;7374508;19;20026;-69
2024/01/28 10:48:34;;;;;;;12.43;8.60;;;5.60;1.00;;;;;;7377318;19;20003;-69
2024/01/28 10:51:05;;;;;;;9.45;8.05;;;5.70;1.00;;;;;;7374523;19;20006;-70
2024/01/28 10:53:35;;;;;;;11.98;8.10;;;5.80;1.00;;;;;;7373339;19;20082;-69
2024/01/28 10:56:06;;;;;;;11.68;8.02;;;5.90;1.00;;;;;;7374340;19;20499;-69
2024/01/28 10:58:39;;;;;;;13.35;8.52;;;6.00;1.00;;;;;;7375291;19;20013;-70
2024/01/28 11:01:09;;;;;;;10.77;7.72;;;6.10;1.00;;;;;;7373604;19;20028;-70
2024/01/28 11:03:40;;;;;;;9.63;7.90;;;6.10;1.00;;;;;;7375560;19;20017;-69
2024/01/28 11:06:10;;;;;;;8.70;6.68;;;6.30;1.00;;;;;;7376175;19;20016;-70
2024/01/28 11:08:41;;;;;;;9.35;6.75;;;6.40;1.00;;;;;;7375565;19;20014;-70
2024/01/28 11:11:12;;;;;;;8.60;7.32;;;6.50;1.00;;;;;;7374254;19;20010;-69
2024/01/28 11:13:46;;;;;;;8.43;6.30;;;6.60;1.00;;;;;;7375423;19;26410;-70
2024/01/28 11:16:18;;;;;;;9.48;6.35;;;6.60;1.00;;;;;;7374352;19;20061;-70
2024/01/28 11:18:59;;;;;;;9.07;7.47;;;6.80;1.00;;;;;;7371752;19;20011;-69
2024/01/28 11:21:29;;;;;;;7.30;6.20;;;6.90;1.00;;;;;;7372169;19;20021;-70
2024/01/28 11:23:59;;;;;;;9.68;6.50;;;7.00;1.00;;;;;;7373489;19;20015;-69
2024/01/28 11:26:30;;;;;;;11.15;6.47;;;7.20;1.00;;;;;;7374081;19;20094;-69
2024/01/28 11:29:02;;;;;;;9.55;7.13;;;7.30;1.00;;;;;;7374008;19;20007;-70
2024/01/28 11:31:34;;;;;;;8.50;6.38;;;7.30;1.00;;;;;;7376051;19;20017;-69
2024/01/28 11:34:17;;;;;;;8.18;5.68;;;7.30;1.00;;;;;;7376029;19;20011;-69
2024/01/28 11:36:51;;;;;;;9.50;6.30;;;7.40;1.00;;;;;;7383847;19;20011;-69
2024/01/28 11:39:36;;;;;;;9.23;6.20;;;7.40;1.00;;;;;;7383159;19;20014;-69
2024/01/28 11:42:07;;;;;;;9.35;6.28;;;7.50;1.00;;;;;;6870350;19;2004812;-70
2024/01/28 11:44:40;;;;;;;9.20;6.00;;;7.50;1.00;;;;;;7383415;19;20682;-70
2024/01/28 11:47:13;;;;;;;7.28;5.18;;;7.60;1.00;;;;;;7381969;19;20014;-70
2024/01/28 11:49:45;;;;;;;7.22;5.47;;;7.70;1.00;;;;;;7382060;19;20013;-70
2024/01/28 11:52:15;;;;;;;7.15;6.00;;;7.80;1.00;;;;;;7381803;19;20030;-69
2024/01/28 11:54:47;;;;;;;6.20;5.18;;;7.80;1.00;;;;;;7382242;19;20098;-71
2024/01/28 11:57:18;;;;;;;6.60;5.22;;;7.90;1.00;;;;;;7381213;19;20025;-70
2024/01/28 11:59:51;;;;;;;8.40;5.50;;;8.00;1.00;;;;;;7382335;19;20022;-70
2024/01/28 12:02:21;;;;;;;7.80;6.00;;;8.10;1.00;;;;;;7382489;19;20006;-70
2024/01/28 12:04:57;;;;;;;7.57;5.22;;;8.10;1.00;;;;;;7379927;19;20015;-69
2024/01/28 12:07:27;;;;;;;9.68;6.43;;;8.20;1.00;;;;;;7380785;19;20017;-69
2024/01/28 12:09:58;;;;;;;10.18;6.43;;;8.30;1.00;;;;;;7382026;19;20085;-70
2024/01/28 12:12:34;;;;;;;9.48;6.65;;;8.30;1.00;;;;;;7380085;19;20090;-70
2024/01/28 12:15:09;;;;;;;9.27;6.25;;;8.40;1.00;;;;;;7380748;19;20439;-70
2024/01/28 12:17:40;;;;;;;7.32;6.10;;;8.40;1.00;;;;;;7381137;19;20015;-70
2024/01/28 12:20:22;;;;;;;9.38;6.43;;;8.40;1.00;;;;;;7380469;19;20531;-70
2024/01/28 12:22:52;;;;;;;10.80;6.18;;;8.40;1.00;;;;;;7379378;19;20471;-71
2024/01/28 12:25:24;;;;;;;6.05;4.85;;;8.50;1.00;;;;;;7379718;19;20011;-72
2024/01/28 12:27:55;;;;;;;7.75;5.25;;;8.60;1.00;;;;;;7376073;19;20095;-71
2024/01/28 12:30:28;;;;;;;9.13;5.97;;;8.60;1.00;;;;;;7379237;19;20672;-70
2024/01/28 12:32:58;;;;;;;7.95;5.85;;;8.60;1.00;;;;;;7381304;19;20013;-70
2024/01/28 12:35:28;;;;;;;8.35;4.75;;;8.70;1.00;;;;;;7381084;19;20463;-71
2024/01/28 12:37:58;;;;;;;8.63;5.10;;;8.70;1.00;;;;;;7380811;19;20006;-70
2024/01/28 12:40:28;;;;;;;5.43;4.70;;;8.70;1.00;;;;;;7382121;19;20011;-70
2024/01/28 12:42:58;;;;;;;7.18;5.10;;;8.80;1.00;;;;;;7380278;19;20003;-69
2024/01/28 12:45:31;;;;;;;7.97;5.25;;;8.80;1.00;;;;;;7379780;19;20014;-70
2024/01/28 12:48:01;;;;;;;17.92;6.25;;;9.00;1.00;;;;;;7380035;19;20010;-69
2024/01/28 12:50:31;;;;;;;9.13;5.53;;;9.00;1.00;;;;;;7376396;19;20014;-70
2024/01/28 12:53:01;;;;;;;8.82;5.60;;;9.00;1.00;;;;;;7379436;19;20007;-71
2024/01/28 12:55:31;;;;;;;6.35;5.45;;;9.00;1.00;;;;;;7380453;19;20587;-69
2024/01/28 12:58:02;;;;;;;8.65;5.65;;;9.10;1.00;;;;;;7380584;19;20018;-70
2024/01/28 13:00:34;;;;;;;7.95;5.50;;;9.10;1.00;;;;;;7379414;19;20010;-70
2024/01/28 13:03:05;;;;;;;6.63;4.97;;;9.10;1.00;;;;;;7378609;19;20017;-70
2024/01/28 13:05:35;;;;;;;8.25;5.10;;;9.20;1.00;;;;;;7378877;19;20070;-70